Time;durP1;ratioP1;P1;durP2;ratioP2;P2;SDS_P1;SDS_P2;PMS_P1;PMS_P2;Temp;Humidity;BMP_temperature;BMP_pressure;BME280_temperature;BME280_humidity;BME280_pressure;Samples;Min_cycle;Max_cycle;Signal;HPM_P1;HPM_P2
2022/06/05 00:01:37;;;;;;;34.33;30.63;;;;;;;;;;5013357;28;20109;-72
2022/06/05 00:04:26;;;;;;;32.97;29.60;;;;;;;;;;4987595;28;20096;-72
2022/06/05 00:07:02;;;;;;;32.08;28.88;;;;;;;;;;4964631;28;20073;-71
2022/06/05 00:09:31;;;;;;;32.00;28.67;;;;;;;;;;5007813;28;20030;-71
2022/06/05 00:12:03;;;;;;;31.52;28.20;;;;;;;;;;4981509;28;20129;-71
2022/06/05 00:14:30;;;;;;;36.25;30.25;;;;;;;;;;5012838;28;20037;-71
2022/06/05 00:16:56;;;;;;;32.63;29.13;;;;;;;;;;5012951;28;20014;-71
2022/06/05 00:19:22;;;;;;;33.28;29.77;;;;;;;;;;5012130;28;20081;-72
2022/06/05 00:21:49;;;;;;;30.27;27.23;;;;;;;;;;5012929;28;20018;-71
2022/06/05 00:24:15;;;;;;;30.95;27.73;;;;;;;;;;5013468;28;20105;-71
2022/06/05 00:26:59;;;;;;;29.63;26.83;;;;;;;;;;5012470;28;20495;-71
2022/06/05 00:29:41;;;;;;;31.30;28.20;;;;;;;;;;5012409;28;20033;-72
2022/06/05 00:32:07;;;;;;;31.83;28.42;;;;;;;;;;4982937;28;20029;-71
2022/06/05 00:34:33;;;;;;;33.70;30.02;;;;;;;;;;5012637;28;20030;-72
2022/06/05 00:37:02;;;;;;;32.90;29.45;;;;;;;;;;5012325;28;20058;-70
2022/06/05 00:39:28;;;;;;;31.13;27.88;;;;;;;;;;5012300;28;20354;-71
2022/06/05 00:42:05;;;;;;;32.63;29.10;;;;;;;;;;4995483;28;20072;-71
2022/06/05 00:44:31;;;;;;;30.83;27.60;;;;;;;;;;5012476;28;20101;-72
2022/06/05 00:46:59;;;;;;;32.08;28.63;;;;;;;;;;5011066;28;20125;-70
2022/06/05 00:49:29;;;;;;;33.92;30.58;;;;;;;;;;5010853;28;20113;-71
2022/06/05 00:51:55;;;;;;;30.67;27.67;;;;;;;;;;5023420;23;20329;-72
2022/06/05 00:54:21;;;;;;;31.80;28.63;;;;;;;;;;4999905;28;20498;-72
2022/06/05 00:56:47;;;;;;;31.92;28.63;;;;;;;;;;5012411;28;20073;-72
2022/06/05 00:59:13;;;;;;;32.33;28.70;;;;;;;;;;5011682;28;20498;-71
2022/06/05 01:01:41;;;;;;;32.67;29.38;;;;;;;;;;5010550;28;20030;-72
2022/06/05 01:04:07;;;;;;;34.70;31.00;;;;;;;;;;5012159;28;20025;-72
2022/06/05 01:06:33;;;;;;;33.67;30.30;;;;;;;;;;5010982;28;20034;-71
2022/06/05 01:09:00;;;;;;;35.33;30.63;;;;;;;;;;5010252;28;20040;-71
2022/06/05 01:11:38;;;;;;;31.88;28.48;;;;;;;;;;5012580;28;20030;-71
2022/06/05 01:14:19;;;;;;;34.05;30.73;;;;;;;;;;4981375;28;20033;-71
2022/06/05 01:16:48;;;;;;;33.17;29.52;;;;;;;;;;5010463;28;20032;-70
2022/06/05 01:19:17;;;;;;;33.80;29.10;;;;;;;;;;5011323;28;20018;-71
2022/06/05 01:21:46;;;;;;;30.60;27.45;;;;;;;;;;5011525;28;20040;-72
2022/06/05 01:24:15;;;;;;;34.22;30.35;;;;;;;;;;5010579;28;20545;-71
2022/06/05 01:26:46;;;;;;;33.08;29.63;;;;;;;;;;5011906;28;20037;-72
2022/06/05 01:29:18;;;;;;;34.47;30.90;;;;;;;;;;5011389;28;20396;-72
2022/06/05 01:32:02;;;;;;;32.83;29.45;;;;;;;;;;5011732;28;20025;-71
2022/06/05 01:34:28;;;;;;;31.23;27.95;;;;;;;;;;5011902;28;20096;-72
2022/06/05 01:37:07;;;;;;;30.33;27.42;;;;;;;;;;5011731;28;20469;-72
2022/06/05 01:39:45;;;;;;;31.80;28.50;;;;;;;;;;5010451;28;20029;-73
2022/06/05 01:42:15;;;;;;;32.30;28.90;;;;;;;;;;4997903;28;20044;-72
2022/06/05 01:44:47;;;;;;;34.10;30.48;;;;;;;;;;5010523;28;20506;-71
2022/06/05 01:47:22;;;;;;;32.25;29.15;;;;;;;;;;5009492;28;20071;-72
2022/06/05 01:49:59;;;;;;;31.55;28.38;;;;;;;;;;5010188;28;20038;-72
2022/06/05 01:52:37;;;;;;;30.25;27.15;;;;;;;;;;5010037;28;20041;-72
2022/06/05 01:55:05;;;;;;;30.52;27.27;;;;;;;;;;5011396;28;20053;-72
2022/06/05 01:57:33;;;;;;;31.10;27.90;;;;;;;;;;5009075;28;20018;-71
2022/06/05 02:00:12;;;;;;;30.75;27.75;;;;;;;;;;5009423;28;20053;-71
2022/06/05 02:02:58;;;;;;;31.63;28.50;;;;;;;;;;4972139;28;20298;-71
2022/06/05 02:05:29;;;;;;;33.20;29.55;;;;;;;;;;5001177;28;20036;-71
2022/06/05 02:07:58;;;;;;;32.58;29.25;;;;;;;;;;4979325;28;20454;-71
2022/06/05 02:10:26;;;;;;;31.67;28.45;;;;;;;;;;5011273;28;20030;-72
2022/06/05 02:12:54;;;;;;;30.77;27.60;;;;;;;;;;5009936;28;20058;-72
2022/06/05 02:15:20;;;;;;;30.42;27.00;;;;;;;;;;5011198;28;20069;-71
2022/06/05 02:17:46;;;;;;;30.02;27.10;;;;;;;;;;5010373;28;20076;-71
2022/06/05 02:20:13;;;;;;;30.25;26.90;;;;;;;;;;5011298;28;20022;-71
2022/06/05 02:22:43;;;;;;;30.05;27.17;;;;;;;;;;5011140;28;20026;-71
2022/06/05 02:25:10;;;;;;;31.75;28.27;;;;;;;;;;5011128;28;20034;-71
2022/06/05 02:27:36;;;;;;;30.90;27.85;;;;;;;;;;5010170;28;20545;-71
2022/06/05 02:30:03;;;;;;;32.22;28.75;;;;;;;;;;5011065;28;20032;-71
2022/06/05 02:32:39;;;;;;;33.35;30.02;;;;;;;;;;5011131;28;20527;-71
2022/06/05 02:35:19;;;;;;;35.28;31.42;;;;;;;;;;5011065;28;20384;-71
2022/06/05 02:38:05;;;;;;;32.33;29.08;;;;;;;;;;5010075;28;20022;-71
2022/06/05 02:40:37;;;;;;;33.92;30.00;;;;;;;;;;4972229;28;20291;-71
2022/06/05 02:43:12;;;;;;;33.47;30.13;;;;;;;;;;5004474;28;20476;-71
2022/06/05 02:45:57;;;;;;;47.45;39.67;;;;;;;;;;5010738;28;20076;-71
2022/06/05 02:48:27;;;;;;;114.15;72.82;;;;;;;;;;5009272;28;20026;-71
2022/06/05 02:51:13;;;;;;;53.85;41.47;;;;;;;;;;5014440;28;20084;-72
2022/06/05 02:53:53;;;;;;;69.60;47.78;;;;;;;;;;5013873;28;20100;-71
2022/06/05 02:56:19;;;;;;;42.45;34.75;;;;;;;;;;5014434;28;20032;-71
2022/06/05 02:58:46;;;;;;;46.10;37.58;;;;;;;;;;5012411;28;20116;-70
2022/06/05 03:03:56;;;;;;;34.80;31.17;;;;;;;;;;4983780;28;20579;-71
2022/06/05 03:06:22;;;;;;;36.78;32.78;;;;;;;;;;5014416;28;20109;-71
2022/06/05 03:08:48;;;;;;;35.53;31.52;;;;;;;;;;5013555;28;20030;-71
2022/06/05 03:11:14;;;;;;;33.33;29.70;;;;;;;;;;5015093;28;20458;-71
2022/06/05 03:13:40;;;;;;;33.55;29.98;;;;;;;;;;5014182;28;20030;-71
2022/06/05 03:16:08;;;;;;;29.67;26.67;;;;;;;;;;5015109;28;20026;-71
2022/06/05 03:18:34;;;;;;;31.38;28.17;;;;;;;;;;5012957;28;20033;-71
2022/06/05 03:21:00;;;;;;;30.52;27.27;;;;;;;;;;5013530;28;20022;-71
2022/06/05 03:23:26;;;;;;;29.38;26.48;;;;;;;;;;5013949;28;20108;-70
2022/06/05 03:25:52;;;;;;;28.15;25.15;;;;;;;;;;5013097;28;20018;-71
2022/06/05 03:28:18;;;;;;;28.38;25.63;;;;;;;;;;5013267;28;20036;-71
2022/06/05 03:30:45;;;;;;;25.70;23.10;;;;;;;;;;5013887;28;20101;-70
2022/06/05 03:33:11;;;;;;;26.45;22.42;;;;;;;;;;5012453;28;20030;-71
2022/06/05 03:35:39;;;;;;;23.65;19.65;;;;;;;;;;5013752;28;20030;-71
2022/06/05 03:38:05;;;;;;;20.45;18.23;;;;;;;;;;5011601;28;20029;-71
2022/06/05 03:40:32;;;;;;;19.73;17.77;;;;;;;;;;5003932;28;20018;-71
2022/06/05 03:42:58;;;;;;;20.08;16.35;;;;;;;;;;5006684;28;20026;-72
2022/06/05 03:45:24;;;;;;;17.83;16.02;;;;;;;;;;5013604;28;20017;-72
2022/06/05 03:47:50;;;;;;;17.15;15.43;;;;;;;;;;5011519;28;20395;-72
2022/06/05 03:50:17;;;;;;;18.58;16.80;;;;;;;;;;5013700;28;20033;-72
2022/06/05 03:52:43;;;;;;;18.58;16.63;;;;;;;;;;5012032;28;20033;-73
2022/06/05 03:55:10;;;;;;;17.17;15.32;;;;;;;;;;5013662;28;20033;-70
2022/06/05 03:57:36;;;;;;;15.98;14.38;;;;;;;;;;5011420;28;20026;-70
2022/06/05 04:00:03;;;;;;;13.90;12.52;;;;;;;;;;5012080;28;20033;-72
2022/06/05 04:02:29;;;;;;;16.63;12.15;;;;;;;;;;5001201;28;20022;-72
2022/06/05 04:04:55;;;;;;;14.65;13.15;;;;;;;;;;5006047;28;20053;-72
2022/06/05 04:07:21;;;;;;;15.27;13.77;;;;;;;;;;5012313;28;20099;-71
2022/06/05 04:09:47;;;;;;;16.67;14.98;;;;;;;;;;5013048;28;20030;-72
2022/06/05 04:12:13;;;;;;;19.67;16.75;;;;;;;;;;5013278;28;20030;-72
2022/06/05 04:14:39;;;;;;;18.20;16.38;;;;;;;;;;5012955;28;20120;-72
2022/06/05 04:17:05;;;;;;;20.27;17.90;;;;;;;;;;5012547;28;20022;-70
2022/06/05 04:19:31;;;;;;;19.08;15.23;;;;;;;;;;5012663;28;20030;-72
2022/06/05 04:21:57;;;;;;;22.80;16.23;;;;;;;;;;5012877;28;20029;-73
2022/06/05 04:24:23;;;;;;;17.75;16.00;;;;;;;;;;5013006;28;20037;-71
2022/06/05 04:26:49;;;;;;;18.20;16.35;;;;;;;;;;5010501;28;20030;-72
2022/06/05 04:29:16;;;;;;;16.83;15.20;;;;;;;;;;5012245;28;20026;-72
2022/06/05 04:31:44;;;;;;;14.15;12.70;;;;;;;;;;5012644;28;20105;-70
2022/06/05 04:34:12;;;;;;;16.45;14.25;;;;;;;;;;5012566;28;20029;-70
2022/06/05 04:36:38;;;;;;;15.90;14.30;;;;;;;;;;5012699;28;20092;-70
2022/06/05 04:39:04;;;;;;;17.50;13.88;;;;;;;;;;5012108;28;20056;-70
2022/06/05 04:41:31;;;;;;;12.20;11.00;;;;;;;;;;4996604;28;20381;-71
2022/06/05 04:43:57;;;;;;;13.15;11.77;;;;;;;;;;5012707;28;20434;-71
2022/06/05 04:46:25;;;;;;;13.35;11.90;;;;;;;;;;5012675;28;20025;-71
2022/06/05 04:48:51;;;;;;;13.45;12.05;;;;;;;;;;5011615;28;20040;-72
2022/06/05 04:51:21;;;;;;;13.93;12.73;;;;;;;;;;5011127;28;20026;-72
2022/06/05 04:53:48;;;;;;;24.35;17.42;;;;;;;;;;5010654;28;20030;-72
2022/06/05 04:56:15;;;;;;;90.22;60.55;;;;;;;;;;5012319;28;20058;-71
2022/06/05 04:58:41;;;;;;;97.45;64.53;;;;;;;;;;5011504;28;20029;-71
2022/06/05 05:01:15;;;;;;;14.48;12.95;;;;;;;;;;5012258;28;20487;-72
2022/06/05 05:03:41;;;;;;;13.52;12.23;;;;;;;;;;5011932;28;20548;-71
2022/06/05 05:06:10;;;;;;;12.60;11.20;;;;;;;;;;5012346;28;20022;-74
2022/06/05 05:08:36;;;;;;;13.75;12.35;;;;;;;;;;5011475;28;20036;-73
2022/06/05 05:11:03;;;;;;;13.40;11.75;;;;;;;;;;5012373;28;20357;-72
2022/06/05 05:13:29;;;;;;;11.57;10.20;;;;;;;;;;5011601;28;20032;-73
2022/06/05 05:15:55;;;;;;;12.30;10.38;;;;;;;;;;5011859;28;20073;-72
2022/06/05 05:18:22;;;;;;;14.70;12.23;;;;;;;;;;5011264;28;20053;-72
2022/06/05 05:20:49;;;;;;;13.07;11.85;;;;;;;;;;5011960;28;20030;-72
2022/06/05 05:23:15;;;;;;;10.50;9.60;;;;;;;;;;5011810;28;20022;-72
2022/06/05 05:25:41;;;;;;;12.85;11.57;;;;;;;;;;5011815;28;20111;-72
2022/06/05 05:28:07;;;;;;;9.73;8.55;;;;;;;;;;5011081;28;20022;-73
2022/06/05 05:30:33;;;;;;;11.93;10.80;;;;;;;;;;5011705;28;20018;-73
2022/06/05 05:32:59;;;;;;;12.32;11.23;;;;;;;;;;5011620;28;20033;-73
2022/06/05 05:35:26;;;;;;;9.68;8.73;;;;;;;;;;5011494;28;20080;-73
2022/06/05 05:37:51;;;;;;;15.60;11.40;;;;;;;;;;5009816;28;20491;-73
2022/06/05 05:43:02;;;;;;;14.73;13.23;;;;;;;;;;5005423;28;20465;-73
2022/06/05 05:45:28;;;;;;;14.38;13.05;;;;;;;;;;5011343;28;20033;-72
2022/06/05 05:47:54;;;;;;;11.93;10.82;;;;;;;;;;5010734;28;20022;-74
2022/06/05 05:50:21;;;;;;;17.73;14.75;;;;;;;;;;5011818;28;20034;-73
2022/06/05 05:52:47;;;;;;;18.05;13.25;;;;;;;;;;5011472;28;20671;-73
2022/06/05 05:55:14;;;;;;;12.77;10.10;;;;;;;;;;5010153;28;20026;-73
2022/06/05 05:57:41;;;;;;;11.27;10.13;;;;;;;;;;5009090;28;20552;-74
2022/06/05 06:00:09;;;;;;;11.73;10.52;;;;;;;;;;5010346;28;20190;-74
2022/06/05 06:02:35;;;;;;;13.35;12.05;;;;;;;;;;5001302;28;20027;-73
2022/06/05 06:05:02;;;;;;;12.27;11.07;;;;;;;;;;5005369;28;20030;-73
2022/06/05 06:07:28;;;;;;;11.38;9.90;;;;;;;;;;5010354;28;20021;-73
2022/06/05 06:09:55;;;;;;;10.35;9.35;;;;;;;;;;5011742;28;20440;-73
2022/06/05 06:12:24;;;;;;;11.50;10.48;;;;;;;;;;5011071;28;20033;-73
2022/06/05 06:14:50;;;;;;;9.68;8.73;;;;;;;;;;5009806;28;20373;-73
2022/06/05 06:17:17;;;;;;;11.45;10.40;;;;;;;;;;5010481;28;20038;-72
2022/06/05 06:19:43;;;;;;;9.85;8.90;;;;;;;;;;5011121;28;20022;-71
2022/06/05 06:22:09;;;;;;;8.60;7.88;;;;;;;;;;5011097;28;20050;-73
2022/06/05 06:24:35;;;;;;;11.82;9.20;;;;;;;;;;5012871;28;20080;-74
2022/06/05 06:27:01;;;;;;;10.73;9.63;;;;;;;;;;5014664;28;20026;-74
2022/06/05 06:29:30;;;;;;;15.70;10.90;;;;;;;;;;5014700;28;20030;-74
2022/06/05 06:31:56;;;;;;;11.85;9.73;;;;;;;;;;5014994;28;20033;-72
2022/06/05 06:34:22;;;;;;;11.35;10.35;;;;;;;;;;5015154;28;20022;-73
2022/06/05 06:36:48;;;;;;;11.82;10.63;;;;;;;;;;5014895;28;20092;-73
2022/06/05 06:39:14;;;;;;;9.38;8.23;;;;;;;;;;5014331;28;20494;-72
2022/06/05 06:41:40;;;;;;;9.77;8.80;;;;;;;;;;4998765;28;20066;-73
2022/06/05 06:44:06;;;;;;;12.55;10.70;;;;;;;;;;5013521;28;20021;-72
2022/06/05 06:46:33;;;;;;;11.80;10.57;;;;;;;;;;5014956;28;20037;-73
2022/06/05 06:48:59;;;;;;;10.18;9.25;;;;;;;;;;5014102;28;20053;-73
2022/06/05 06:51:25;;;;;;;11.70;10.52;;;;;;;;;;5013284;28;20443;-74
2022/06/05 06:53:51;;;;;;;12.00;10.85;;;;;;;;;;5027081;22;20495;-71
2022/06/05 06:56:19;;;;;;;12.07;10.88;;;;;;;;;;5014499;28;20113;-71
2022/06/05 06:58:45;;;;;;;10.35;9.02;;;;;;;;;;5013665;28;20430;-72
2022/06/05 07:01:11;;;;;;;11.82;9.40;;;;;;;;;;5013081;28;20033;-68
2022/06/05 07:03:38;;;;;;;11.20;7.93;;;;;;;;;;5014342;28;20061;-71
2022/06/05 07:06:05;;;;;;;10.90;9.07;;;;;;;;;;5013188;28;20022;-71
2022/06/05 07:08:31;;;;;;;9.73;8.23;;;;;;;;;;5013498;28;20079;-69
2022/06/05 07:10:57;;;;;;;9.30;8.38;;;;;;;;;;5014086;28;20065;-71
2022/06/05 07:13:24;;;;;;;8.80;8.00;;;;;;;;;;5014072;28;20030;-72
2022/06/05 07:15:50;;;;;;;9.27;7.93;;;;;;;;;;5014365;28;20030;-71
2022/06/05 07:18:17;;;;;;;8.38;7.57;;;;;;;;;;5013509;28;20476;-72
2022/06/05 07:20:43;;;;;;;7.00;6.40;;;;;;;;;;5014166;28;20034;-72
2022/06/05 07:23:10;;;;;;;7.10;6.50;;;;;;;;;;5014052;28;20033;-72
2022/06/05 07:25:36;;;;;;;9.80;7.28;;;;;;;;;;5013735;28;20034;-72
2022/06/05 07:28:03;;;;;;;7.13;6.50;;;;;;;;;;5013297;28;20026;-72
2022/06/05 07:30:30;;;;;;;7.38;5.88;;;;;;;;;;5012708;28;20079;-71
2022/06/05 07:32:56;;;;;;;6.00;5.50;;;;;;;;;;5014008;28;20036;-71
2022/06/05 07:35:22;;;;;;;5.63;4.97;;;;;;;;;;5012757;28;20034;-71
2022/06/05 07:37:48;;;;;;;11.35;7.28;;;;;;;;;;5013040;28;20025;-71
2022/06/05 07:40:15;;;;;;;6.57;5.78;;;;;;;;;;5005926;28;20097;-71
2022/06/05 07:42:42;;;;;;;6.82;5.97;;;;;;;;;;5005804;28;20232;-72
2022/06/05 07:45:10;;;;;;;7.65;5.95;;;;;;;;;;5014029;28;20088;-71
2022/06/05 07:47:36;;;;;;;6.72;5.60;;;;;;;;;;5013275;28;20041;-71
2022/06/05 07:50:02;;;;;;;5.93;5.22;;;;;;;;;;5013707;28;20083;-71
2022/06/05 07:55:14;;;;;;;5.97;5.38;;;;;;;;;;5013867;28;20045;-70
2022/06/05 07:57:40;;;;;;;7.35;5.93;;;;;;;;;;5012793;28;20022;-71
2022/06/05 08:00:07;;;;;;;6.15;5.60;;;;;;;;;;5014168;28;20029;-71
2022/06/05 08:02:34;;;;;;;5.68;5.07;;;;;;;;;;4997084;28;20034;-71
2022/06/05 08:05:02;;;;;;;5.50;4.35;;;;;;;;;;5005353;28;20229;-72
2022/06/05 08:07:29;;;;;;;5.05;4.60;;;;;;;;;;4994852;28;20023;-71
2022/06/05 08:09:55;;;;;;;4.80;4.30;;;;;;;;;;5012779;28;20049;-71
2022/06/05 08:12:23;;;;;;;5.25;4.65;;;;;;;;;;5007516;28;20040;-72
2022/06/05 08:14:50;;;;;;;8.35;4.43;;;;;;;;;;4997365;28;20475;-71
2022/06/05 08:17:18;;;;;;;6.03;4.43;;;;;;;;;;5011375;28;20399;-71
2022/06/05 08:19:45;;;;;;;5.43;4.00;;;;;;;;;;4981625;28;20021;-72
2022/06/05 08:22:12;;;;;;;5.32;4.15;;;;;;;;;;5013263;28;20025;-71
2022/06/05 08:24:39;;;;;;;5.97;3.95;;;;;;;;;;5013522;28;20036;-72
2022/06/05 08:27:06;;;;;;;4.13;3.65;;;;;;;;;;5012802;28;20101;-72
2022/06/05 08:29:32;;;;;;;5.32;3.60;;;;;;;;;;5011252;28;20488;-72
2022/06/05 08:31:58;;;;;;;4.30;3.95;;;;;;;;;;5012966;28;20083;-72
2022/06/05 08:34:24;;;;;;;3.92;3.63;;;;;;;;;;5012527;28;20026;-72
2022/06/05 08:41:26;;;;;;;3.88;3.53;;;;;;;;;;5012533;28;20060;-71
2022/06/05 08:42:32;;;;;;;3.95;3.55;;;;;;;;;;5001394;28;20081;-71
2022/06/05 08:45:01;;;;;;;5.53;3.55;;;;;;;;;;5012674;28;20084;-71
2022/06/05 08:47:29;;;;;;;4.30;3.90;;;;;;;;;;5011165;28;20053;-71
2022/06/05 08:50:04;;;;;;;7.25;3.95;;;;;;;;;;5012387;28;20025;-71
2022/06/05 08:52:50;;;;;;;4.32;3.92;;;;;;;;;;5010750;28;20030;-71
2022/06/05 08:55:29;;;;;;;5.13;3.70;;;;;;;;;;5012096;28;20046;-71
2022/06/05 08:58:10;;;;;;;5.82;3.97;;;;;;;;;;4982845;28;20049;-72
2022/06/05 09:00:42;;;;;;;4.78;4.32;;;;;;;;;;5012288;28;20025;-70
2022/06/05 09:03:15;;;;;;;4.90;4.50;;;;;;;;;;5012231;28;20049;-71
2022/06/05 09:05:44;;;;;;;4.47;3.90;;;;;;;;;;5012062;28;20021;-72
2022/06/05 09:08:12;;;;;;;5.80;3.95;;;;;;;;;;5011580;28;20025;-72
2022/06/05 09:10:44;;;;;;;3.80;3.47;;;;;;;;;;5012317;28;20102;-71
2022/06/05 09:13:13;;;;;;;4.07;3.78;;;;;;;;;;5012274;28;20022;-71
2022/06/05 09:15:55;;;;;;;6.05;4.45;;;;;;;;;;5011993;28;20050;-70
2022/06/05 09:18:22;;;;;;;5.18;3.50;;;;;;;;;;5011174;28;20030;-70
2022/06/05 09:20:56;;;;;;;4.82;3.63;;;;;;;;;;5011939;28;20034;-72
2022/06/05 09:23:35;;;;;;;4.25;3.85;;;;;;;;;;5012231;28;20052;-71
2022/06/05 09:26:02;;;;;;;4.35;3.65;;;;;;;;;;5012002;28;20033;-71
2022/06/05 09:28:46;;;;;;;6.38;3.42;;;;;;;;;;5011208;28;20030;-71
2022/06/05 09:31:33;;;;;;;8.50;4.25;;;;;;;;;;4982677;28;20031;-71
2022/06/05 09:34:01;;;;;;;5.72;3.67;;;;;;;;;;4984004;28;20345;-71
2022/06/05 09:36:28;;;;;;;3.88;3.40;;;;;;;;;;5010594;28;20491;-71
2022/06/05 09:39:23;;;;;;;5.45;3.40;;;;;;;;;;5010961;28;20022;-72
2022/06/05 09:41:52;;;;;;;3.85;3.15;;;;;;;;;;4957706;28;20038;-71
2022/06/05 09:44:29;;;;;;;3.97;3.40;;;;;;;;;;5000569;28;20120;-72
2022/06/05 09:46:58;;;;;;;2.88;2.67;;;;;;;;;;5012343;28;20084;-70
2022/06/05 09:49:24;;;;;;;4.47;3.03;;;;;;;;;;5010837;28;20503;-72
2022/06/05 09:51:50;;;;;;;3.65;3.35;;;;;;;;;;5011304;28;20034;-71
2022/06/05 09:54:24;;;;;;;3.08;2.80;;;;;;;;;;5011316;28;20030;-71
2022/06/05 09:59:49;;;;;;;6.40;2.90;;;;;;;;;;5010726;28;20092;-71
2022/06/05 10:02:17;;;;;;;3.85;2.97;;;;;;;;;;5011358;28;20026;-71
2022/06/05 10:04:43;;;;;;;4.03;3.38;;;;;;;;;;5011421;28;20069;-71
2022/06/05 10:07:17;;;;;;;6.85;3.70;;;;;;;;;;5010825;28;20058;-73
2022/06/05 10:09:45;;;;;;;3.70;3.22;;;;;;;;;;4980232;28;20041;-72
2022/06/05 10:12:36;;;;;;;3.55;3.20;;;;;;;;;;5010259;28;20026;-71
2022/06/05 10:15:02;;;;;;;;;;;;;;;;;;5011610;28;20183;-70
2022/06/05 10:17:31;;;;;;;3.50;3.20;;;;;;;;;;5010455;28;19996;-71
2022/06/05 10:20:18;;;;;;;5.65;3.42;;;29.20;36.10;;;;;;5011067;28;20131;-70
2022/06/05 10:23:06;;;;;;;3.67;3.35;;;28.60;36.50;;;;;;5011163;28;20026;-71
2022/06/05 10:25:44;;;;;;;5.45;3.70;;;28.40;37.00;;;;;;5009814;28;20095;-71
2022/06/05 10:28:20;;;;;;;4.70;3.30;;;28.40;36.60;;;;;;5010474;28;20022;-72
2022/06/05 10:31:01;;;;;;;3.20;2.97;;;28.20;38.70;;;;;;5011036;28;20089;-71
2022/06/05 10:33:39;;;;;;;4.47;3.47;;;28.00;37.70;;;;;;5010668;28;20399;-70
2022/06/05 10:36:10;;;;;;;3.53;3.25;;;27.70;37.20;;;;;;5011068;28;20022;-71
2022/06/05 10:39:13;;;;;;;3.78;3.15;;;27.70;37.80;;;;;;5010339;28;20060;-70
2022/06/05 10:41:46;;;;;;;6.20;3.47;;;27.60;37.80;;;;;;4961741;28;20065;-71
2022/06/05 10:44:24;;;;;;;6.60;3.90;;;27.80;37.90;;;;;;5011405;28;20041;-71
2022/06/05 10:47:19;;;;;;;4.10;3.65;;;28.00;38.50;;;;;;5011575;28;20064;-71
2022/06/05 10:49:48;;;;;;;5.07;3.72;;;27.60;38.90;;;;;;4981124;28;20022;-71
2022/06/05 10:52:26;;;;;;;3.88;3.58;;;27.90;39.10;;;;;;5012230;28;20116;-72
2022/06/05 10:55:17;;;;;;;6.13;3.83;;;27.80;38.90;;;;;;5011728;28;20033;-71
2022/06/05 10:58:16;;;;;;;5.13;3.80;;;28.00;38.20;;;;;;4979124;28;20041;-71
2022/06/05 11:00:50;;;;;;;4.00;3.55;;;27.90;37.60;;;;;;5011364;28;20071;-70
2022/06/05 11:03:52;;;;;;;4.75;3.70;;;27.40;39.00;;;;;;5010672;28;20480;-70
2022/06/05 11:06:42;;;;;;;4.75;3.95;;;27.30;39.20;;;;;;5009658;28;20079;-70
2022/06/05 11:09:27;;;;;;;3.90;3.50;;;27.20;39.70;;;;;;5010302;28;20029;-69
2022/06/05 11:15:12;;;;;;;4.65;4.03;;;27.10;40.30;;;;;;5014147;28;20498;-70
2022/06/05 11:17:57;;;;;;;5.63;4.07;;;27.10;40.40;;;;;;5013264;28;20025;-70
2022/06/05 11:20:26;;;;;;;4.45;4.00;;;27.00;39.90;;;;;;5014322;28;20029;-70
2022/06/05 11:22:59;;;;;;;11.13;4.10;;;27.00;40.70;;;;;;5014053;28;20439;-70
2022/06/05 11:25:33;;;;;;;3.58;3.30;;;27.20;41.00;;;;;;5013713;28;20068;-70
2022/06/05 11:27:59;;;;;;;5.93;3.60;;;27.30;39.10;;;;;;5013515;28;20087;-70
2022/06/05 11:31:15;;;;;;;6.53;3.72;;;27.00;40.20;;;;;;5014311;28;20141;-71
2022/06/05 11:33:54;;;;;;;3.33;3.03;;;27.10;41.20;;;;;;4956948;28;20034;-71
2022/06/05 11:36:26;;;;;;;3.42;3.17;;;27.10;39.50;;;;;;5014283;28;20018;-71
2022/06/05 11:39:22;;;;;;;4.07;3.33;;;27.20;38.30;;;;;;5012584;28;20030;-71
2022/06/05 11:42:18;;;;;;;6.13;3.40;;;26.90;38.80;;;;;;4984640;28;20026;-71
2022/06/05 11:45:06;;;;;;;4.70;3.40;;;27.20;39.10;;;;;;4997593;28;20030;-72
2022/06/05 11:47:41;;;;;;;3.50;3.13;;;27.30;38.60;;;;;;5011928;28;20079;-72
2022/06/05 11:50:15;;;;;;;3.85;3.20;;;27.50;39.60;;;;;;5003155;28;20030;-72
2022/06/05 11:52:44;;;;;;;3.97;3.10;;;27.70;37.10;;;;;;5013168;28;20398;-71
2022/06/05 11:55:30;;;;;;;3.65;2.80;;;27.70;38.60;;;;;;5013530;28;20092;-72
2022/06/05 11:58:04;;;;;;;3.38;3.08;;;28.00;38.10;;;;;;4985606;28;20105;-72
2022/06/05 12:00:33;;;;;;;4.07;3.08;;;28.00;36.50;;;;;;5013201;28;20091;-71
2022/06/05 12:03:20;;;;;;;4.95;2.58;;;27.70;36.50;;;;;;5013571;28;20124;-71
2022/06/05 12:06:07;;;;;;;5.13;2.90;;;28.00;37.90;;;;;;4983102;28;20045;-71
2022/06/05 12:08:37;;;;;;;2.83;2.58;;;28.20;36.60;;;;;;5012603;28;20026;-71
2022/06/05 12:11:33;;;;;;;5.55;2.75;;;28.30;36.90;;;;;;5013899;28;20033;-71
2022/06/05 12:14:17;;;;;;;3.22;2.97;;;28.20;36.70;;;;;;4986803;28;20088;-70
2022/06/05 12:16:43;;;;;;;3.38;3.08;;;28.00;36.50;;;;;;5013017;28;20108;-70
2022/06/05 12:19:08;;;;;;;5.07;2.80;;;28.20;36.10;;;;;;5012285;28;20105;-71
2022/06/05 12:21:41;;;;;;;4.35;2.90;;;28.10;36.20;;;;;;5012324;28;20551;-71
2022/06/05 12:24:16;;;;;;;3.25;2.92;;;28.20;37.20;;;;;;5013237;28;20487;-70
2022/06/05 12:27:20;;;;;;;3.17;2.92;;;28.20;36.30;;;;;;5013111;28;20105;-69
2022/06/05 12:29:55;;;;;;;6.32;3.42;;;28.30;36.00;;;;;;4981922;28;20500;-72
2022/06/05 12:32:28;;;;;;;4.50;3.10;;;28.60;36.80;;;;;;5012783;28;20055;-70
2022/06/05 12:35:14;;;;;;;2.95;2.67;;;29.00;36.10;;;;;;5011724;28;20092;-71
2022/06/05 12:37:47;;;;;;;5.05;2.95;;;29.10;35.70;;;;;;4980329;28;20010;-72
2022/06/05 12:40:19;;;;;;;2.97;2.67;;;29.30;34.90;;;;;;5005129;28;20448;-73
2022/06/05 12:42:59;;;;;;;6.82;2.78;;;29.30;35.00;;;;;;5005560;28;20022;-71
2022/06/05 12:45:29;;;;;;;3.60;2.45;;;29.30;35.50;;;;;;5011219;28;20030;-71
2022/06/05 12:48:12;;;;;;;3.78;2.50;;;29.40;34.20;;;;;;5012086;28;20018;-71
2022/06/05 12:50:43;;;;;;;2.65;2.45;;;29.20;35.30;;;;;;5012594;28;20022;-71
2022/06/05 12:53:31;;;;;;;2.78;2.58;;;29.40;35.60;;;;;;5030267;23;20046;-74
2022/06/05 12:56:42;;;;;;;3.33;2.63;;;29.50;34.80;;;;;;4982380;28;20070;-72
2022/06/05 12:59:24;;;;;;;3.75;3.25;;;29.90;35.00;;;;;;5010655;28;20045;-73
2022/06/05 13:01:58;;;;;;;2.85;2.50;;;30.00;34.00;;;;;;4983329;28;20380;-73
2022/06/05 13:04:36;;;;;;;18.67;6.30;;;29.60;33.30;;;;;;5012465;28;20108;-73
2022/06/05 13:07:10;;;;;;;5.00;3.55;;;29.60;34.10;;;;;;5011815;28;20053;-74
2022/06/05 13:09:42;;;;;;;3.42;2.75;;;29.50;33.20;;;;;;5012415;28;20033;-73
2022/06/05 13:12:41;;;;;;;3.13;2.30;;;29.70;33.00;;;;;;5012587;28;20049;-74
2022/06/05 13:15:40;;;;;;;2.13;2.03;;;29.50;33.30;;;;;;5011984;28;20388;-72
2022/06/05 13:18:22;;;;;;;2.30;2.15;;;29.90;33.00;;;;;;4986937;28;20054;-73
2022/06/05 13:20:59;;;;;;;25.05;14.73;;;29.50;33.40;;;;;;5012259;28;20076;-73
2022/06/05 13:23:43;;;;;;;8.18;5.15;;;29.50;33.30;;;;;;5011770;28;20037;-73
2022/06/05 13:26:22;;;;;;;4.15;3.25;;;29.40;34.20;;;;;;5011754;28;20403;-73
2022/06/05 13:29:00;;;;;;;2.90;2.60;;;29.10;34.10;;;;;;5011300;28;20042;-73
2022/06/05 13:31:58;;;;;;;2.75;2.47;;;29.00;34.00;;;;;;5011409;28;20037;-71
2022/06/05 13:34:45;;;;;;;5.07;2.47;;;28.70;33.50;;;;;;5011078;28;20041;-72
2022/06/05 13:37:33;;;;;;;6.03;4.00;;;28.40;34.10;;;;;;5010819;28;20030;-74
2022/06/05 13:40:11;;;;;;;6.28;3.85;;;28.50;33.80;;;;;;4979675;28;20028;-72
2022/06/05 13:42:40;;;;;;;7.05;3.10;;;28.50;34.70;;;;;;5003259;28;20535;-72
2022/06/05 13:45:46;;;;;;;32.00;17.92;;;28.60;34.50;;;;;;5011469;28;20084;-73
2022/06/05 13:48:30;;;;;;;10.65;3.58;;;28.90;34.00;;;;;;4987277;28;20492;-73
2022/06/05 13:51:10;;;;;;;3.03;2.50;;;29.10;33.10;;;;;;5011531;28;20060;-73
2022/06/05 13:53:43;;;;;;;3.67;2.67;;;29.00;32.80;;;;;;4979426;28;20033;-73
2022/06/05 13:56:09;;;;;;;3.13;2.33;;;28.90;33.10;;;;;;5002371;28;20018;-73
2022/06/05 13:58:53;;;;;;;4.28;2.42;;;28.80;33.00;;;;;;4993657;28;20026;-73
2022/06/05 14:01:36;;;;;;;5.05;2.50;;;28.70;33.30;;;;;;5008733;28;20022;-73
2022/06/05 14:04:14;;;;;;;4.93;2.17;;;28.90;34.30;;;;;;4998764;28;20037;-73
2022/06/05 14:07:02;;;;;;;4.95;2.22;;;29.00;33.20;;;;;;5011569;28;20041;-73
2022/06/05 14:09:56;;;;;;;2.55;2.33;;;28.80;32.80;;;;;;5011010;28;20029;-74
2022/06/05 14:12:25;;;;;;;2.53;2.33;;;28.50;33.40;;;;;;5011102;28;20022;-72
2022/06/05 14:14:52;;;;;;;3.92;2.47;;;28.40;34.20;;;;;;5011167;28;20026;-73
2022/06/05 14:17:34;;;;;;;6.03;2.53;;;28.40;34.90;;;;;;5010228;28;20052;-73
2022/06/05 14:20:02;;;;;;;1.98;1.77;;;28.30;33.70;;;;;;5011080;28;20018;-73
2022/06/05 14:22:33;;;;;;;2.13;1.98;;;28.30;33.40;;;;;;5009584;28;20022;-72
2022/06/05 14:24:59;;;;;;;2.30;2.15;;;28.30;34.10;;;;;;5011346;28;20026;-72
2022/06/05 14:27:32;;;;;;;2.80;2.33;;;28.20;33.70;;;;;;5010112;28;20038;-71
2022/06/05 14:29:59;;;;;;;2.08;1.92;;;28.30;34.00;;;;;;5011133;28;20025;-72
2022/06/05 14:32:35;;;;;;;4.18;2.47;;;28.40;34.40;;;;;;5011139;28;20040;-73
2022/06/05 14:35:16;;;;;;;2.85;2.47;;;28.50;35.10;;;;;;5011477;28;20053;-73
2022/06/05 14:37:58;;;;;;;2.03;1.92;;;28.50;34.30;;;;;;4979896;28;20093;-73
2022/06/05 14:40:51;;;;;;;2.50;2.10;;;28.70;33.70;;;;;;5000333;28;20488;-72